createdAt,value
2022-10-19T05:47:38.257Z,13.30
2022-10-19T05:50:08.942Z,13.20
2022-10-19T05:52:35.919Z,13.20
2022-10-19T05:55:02.917Z,13.20
2022-10-19T05:57:33.182Z,13.10
2022-10-19T06:00:00.456Z,13.30
2022-10-19T06:02:27.566Z,13.30
2022-10-19T06:04:54.596Z,13.20
2022-10-19T06:07:23.689Z,13.30
2022-10-19T06:09:51.197Z,13.30
2022-10-19T06:12:24.262Z,13.30
2022-10-19T06:14:52.207Z,13.30
2022-10-19T06:17:19.366Z,13.40
2022-10-19T06:19:46.606Z,13.40
2022-10-19T06:22:13.541Z,13.50
2022-10-19T06:24:42.715Z,13.50
2022-10-19T06:27:09.857Z,13.50
2022-10-19T06:29:39.138Z,13.60
2022-10-19T06:32:06.115Z,13.70
2022-10-19T06:34:35.158Z,13.70
2022-10-19T06:37:04.211Z,13.70
2022-10-19T06:39:31.614Z,13.80
2022-10-19T06:41:58.668Z,13.80
2022-10-19T06:44:25.906Z,13.70
2022-10-19T06:46:55.261Z,13.80
2022-10-19T06:49:24.689Z,13.80
2022-10-19T06:51:51.634Z,13.80
2022-10-19T06:54:18.530Z,13.90
2022-10-19T06:56:50.884Z,13.80
2022-10-19T06:59:17.935Z,13.90
2022-10-19T07:01:44.831Z,13.90
2022-10-19T07:04:12.035Z,14.00
2022-10-19T07:06:41.324Z,14.00
2022-10-19T07:09:10.609Z,14.10
2022-10-19T07:11:44.875Z,14.20
2022-10-19T07:14:12.957Z,14.40
2022-10-19T07:16:39.859Z,14.40
2022-10-19T07:19:11.728Z,14.40
2022-10-19T07:21:44.901Z,14.50
2022-10-19T07:24:14.460Z,14.60
2022-10-19T07:26:41.349Z,14.70
2022-10-19T07:29:08.546Z,14.70
2022-10-19T07:31:35.602Z,14.70
2022-10-19T07:34:03.793Z,14.70
2022-10-19T07:36:33.220Z,14.80
2022-10-19T07:39:02.159Z,14.90
2022-10-19T07:41:31.964Z,14.80
2022-10-19T07:43:59.653Z,14.90
2022-10-19T07:46:35.793Z,14.90
2022-10-19T07:49:05.200Z,15.00
2022-10-19T07:51:32.044Z,15.10
2022-10-19T07:53:59.506Z,15.30
2022-10-19T07:56:28.917Z,15.30
2022-10-19T07:58:59.626Z,15.30
2022-10-19T08:01:32.621Z,15.40
2022-10-19T08:06:50.608Z,15.50
2022-10-19T08:09:40.075Z,15.50
2022-10-19T08:12:13.840Z,15.60
2022-10-19T08:14:41.935Z,15.60
2022-10-19T08:17:12.046Z,15.70
2022-10-19T08:19:43.513Z,15.80
2022-10-19T08:22:10.853Z,15.90
2022-10-19T08:24:40.189Z,16.00
2022-10-19T08:27:07.161Z,15.90
2022-10-19T08:29:34.071Z,16.00
2022-10-19T08:32:00.911Z,15.90
2022-10-19T08:34:27.827Z,15.80
2022-10-19T08:36:54.749Z,16.00
2022-10-19T08:39:21.771Z,16.10
2022-10-19T08:42:15.364Z,16.20
2022-10-19T08:45:09.626Z,16.00
2022-10-19T08:47:42.334Z,16.10
2022-10-19T08:50:22.289Z,16.10
2022-10-19T08:53:14.998Z,16.10
2022-10-19T08:56:03.680Z,16.10
2022-10-19T08:59:00.522Z,16.20
2022-10-19T09:01:53.375Z,16.10
2022-10-19T09:04:36.416Z,16.20
2022-10-19T09:07:24.456Z,16.20
2022-10-19T09:10:13.572Z,16.20
2022-10-19T09:12:59.399Z,16.50
2022-10-19T09:15:42.205Z,16.40
2022-10-19T09:18:22.529Z,16.60
2022-10-19T09:21:04.708Z,16.90
2022-10-19T09:23:45.415Z,17.10
2022-10-19T09:26:18.235Z,17.20
2022-10-19T09:29:06.673Z,17.40
2022-10-19T09:31:40.516Z,17.50
2022-10-19T09:34:19.971Z,17.40
2022-10-19T09:36:53.732Z,17.40
2022-10-19T09:39:27.031Z,17.40
2022-10-19T09:42:21.968Z,17.30
2022-10-19T09:44:51.241Z,17.20
2022-10-19T09:47:38.997Z,17.10
2022-10-19T09:50:16.881Z,17.20
2022-10-19T09:52:46.241Z,17.30
2022-10-19T09:55:45.516Z,17.10
2022-10-19T09:58:15.515Z,17.40
2022-10-19T10:00:46.750Z,18.00
2022-10-19T10:03:40.918Z,18.30
2022-10-19T10:06:14.900Z,18.70
2022-10-19T10:08:58.180Z,19.00
2022-10-19T10:11:31.956Z,18.80
2022-10-19T10:14:07.502Z,18.90
2022-10-19T10:16:37.011Z,18.90
2022-10-19T10:19:07.288Z,19.10
2022-10-19T10:21:57.995Z,19.20
2022-10-19T10:24:32.794Z,19.20
2022-10-19T10:27:02.759Z,19.00
2022-10-19T10:29:35.113Z,19.10
2022-10-19T10:32:07.667Z,19.00
2022-10-19T10:34:50.239Z,19.20
2022-10-19T10:37:45.268Z,19.50
2022-10-19T10:40:23.650Z,19.50
2022-10-19T10:42:53.725Z,19.30
2022-10-19T10:45:23.918Z,19.10
2022-10-19T10:47:51.730Z,18.90
2022-10-19T10:50:36.827Z,19.10
2022-10-19T10:53:07.985Z,19.20
2022-10-19T10:55:35.402Z,19.60
2022-10-19T10:58:15.636Z,19.60
2022-10-19T11:00:44.458Z,19.40
2022-10-19T11:03:25.693Z,19.30
2022-10-19T11:05:57.957Z,19.40
2022-10-19T11:08:56.896Z,19.50
2022-10-19T11:11:45.894Z,19.80
2022-10-19T11:14:37.516Z,19.70
2022-10-19T11:17:12.541Z,19.70
2022-10-19T11:19:45.230Z,20.00
2022-10-19T11:22:23.701Z,20.00
2022-10-19T11:25:26.747Z,20.40
2022-10-19T11:28:12.286Z,20.50
2022-10-19T11:31:13.122Z,20.40
2022-10-19T11:33:52.513Z,20.50
2022-10-19T11:36:25.375Z,20.40
2022-10-19T11:39:09.398Z,20.40
2022-10-19T11:42:02.788Z,20.40
2022-10-19T11:45:04.188Z,20.60
2022-10-19T11:47:43.118Z,21.00
2022-10-19T11:50:46.656Z,21.40
2022-10-19T11:53:41.929Z,21.60
2022-10-19T11:56:39.197Z,21.20
2022-10-19T11:59:25.450Z,21.10
2022-10-19T12:02:17.065Z,20.80
2022-10-19T12:04:58.244Z,20.70
2022-10-19T12:07:38.721Z,20.30
2022-10-19T12:10:21.124Z,20.30
2022-10-19T12:13:01.894Z,20.20
2022-10-19T12:15:39.923Z,20.50
2022-10-19T12:18:36.218Z,20.90
2022-10-19T12:21:12.150Z,20.90
2022-10-19T12:23:43.787Z,21.00
2022-10-19T12:26:16.365Z,20.60
2022-10-19T12:28:55.725Z,20.70
2022-10-19T12:31:27.136Z,21.10
2022-10-19T12:33:53.968Z,21.40
2022-10-19T12:36:45.249Z,21.40
2022-10-19T12:39:39.807Z,21.40
2022-10-19T12:42:35.095Z,21.50
2022-10-19T12:45:05.917Z,21.30
2022-10-19T12:47:33.298Z,21.30
2022-10-19T12:50:02.506Z,21.10
2022-10-19T12:52:41.571Z,21.10
2022-10-19T12:55:12.931Z,21.10
2022-10-19T12:57:43.154Z,20.90
2022-10-19T13:00:23.639Z,20.80
2022-10-19T13:03:24.988Z,20.70
2022-10-19T13:06:07.234Z,20.60
2022-10-19T13:08:47.350Z,20.50
2022-10-19T13:11:15.536Z,20.30
2022-10-19T13:13:59.235Z,20.30
2022-10-19T13:16:29.162Z,20.20
2022-10-19T13:19:31.448Z,20.20
2022-10-19T13:22:01.654Z,20.10
2022-10-19T13:24:34.819Z,20.00
2022-10-19T13:27:04.855Z,19.80
2022-10-19T13:29:40.585Z,19.80
2022-10-19T13:32:29.449Z,19.90
2022-10-19T13:35:12.828Z,20.00
2022-10-19T13:37:41.913Z,20.00
2022-10-19T13:40:24.668Z,20.10
2022-10-19T13:43:00.995Z,20.10
2022-10-19T13:45:30.218Z,20.00
2022-10-19T13:48:10.676Z,19.90
2022-10-19T13:50:49.220Z,19.80
2022-10-19T13:53:34.639Z,19.70
2022-10-19T13:56:27.452Z,19.50
2022-10-19T13:59:31.408Z,19.40
2022-10-19T14:02:25.652Z,19.20
2022-10-19T14:05:03.489Z,19.20
2022-10-19T14:07:46.030Z,19.10
2022-10-19T14:10:22.745Z,19.10
2022-10-19T14:12:58.716Z,19.10
2022-10-19T14:15:28.960Z,19.00
2022-10-19T14:17:57.008Z,18.90
2022-10-19T14:20:37.242Z,18.80
2022-10-19T14:23:19.517Z,18.70
2022-10-19T14:26:04.008Z,18.60
2022-10-19T14:28:31.859Z,18.60
2022-10-19T14:31:04.680Z,18.50
2022-10-19T14:33:38.225Z,18.40
2022-10-19T14:36:19.923Z,18.30
2022-10-19T14:38:48.980Z,18.20
2022-10-19T14:41:44.579Z,18.00
2022-10-19T14:44:35.653Z,17.90
2022-10-19T14:47:06.620Z,17.80
2022-10-19T14:49:35.723Z,17.80
2022-10-19T14:52:03.784Z,17.70
2022-10-19T14:54:38.118Z,17.60
2022-10-19T14:57:38.543Z,17.60
2022-10-19T15:00:11.193Z,17.70
2022-10-19T15:02:44.314Z,17.80
2022-10-19T15:05:24.514Z,17.90
2022-10-19T15:07:51.842Z,17.90
2022-10-19T15:10:21.650Z,17.90
2022-10-19T15:12:50.960Z,17.80
2022-10-19T15:15:28.083Z,17.80
2022-10-19T15:18:06.092Z,17.70
2022-10-19T15:20:49.020Z,17.60
2022-10-19T15:23:43.183Z,17.50
2022-10-19T15:26:18.390Z,17.40
2022-10-19T15:28:51.239Z,17.20
2022-10-19T15:31:29.121Z,17.20
2022-10-19T15:33:58.671Z,17.10
2022-10-19T15:36:26.893Z,17.10
2022-10-19T15:39:24.664Z,17.10
2022-10-19T15:41:55.764Z,17.10
2022-10-19T15:44:49.192Z,17.00
2022-10-19T15:47:16.302Z,17.00
2022-10-19T15:49:43.144Z,16.90
2022-10-19T15:52:23.972Z,16.80
2022-10-19T15:54:55.725Z,16.80
2022-10-19T15:57:33.113Z,16.70
2022-10-19T16:00:07.157Z,16.70
2022-10-19T16:02:36.890Z,16.70
2022-10-19T16:05:03.849Z,16.60
2022-10-19T16:07:31.525Z,16.60
2022-10-19T16:09:58.807Z,16.60
2022-10-19T16:12:26.917Z,16.50
2022-10-19T16:14:56.239Z,16.50
2022-10-19T16:17:23.217Z,16.40
2022-10-19T16:19:50.272Z,16.30
2022-10-19T16:22:17.566Z,16.30
2022-10-19T16:24:44.651Z,16.30
2022-10-19T16:27:15.251Z,16.20
2022-10-19T16:29:51.033Z,16.20
2022-10-19T16:32:20.404Z,16.20
2022-10-19T16:34:57.098Z,16.10
2022-10-19T16:37:24.140Z,16.10
2022-10-19T16:39:53.596Z,16.10
2022-10-19T16:42:24.629Z,16.10
2022-10-19T16:44:54.429Z,16.00
2022-10-19T16:47:23.830Z,16.00
2022-10-19T16:50:00.794Z,16.00
2022-10-19T16:52:29.325Z,15.90
2022-10-19T16:54:57.461Z,15.90
2022-10-19T16:57:26.759Z,15.90
2022-10-19T16:59:54.439Z,15.90
2022-10-19T17:02:22.094Z,15.80
2022-10-19T17:05:23.906Z,15.80
2022-10-19T17:07:54.135Z,15.80
2022-10-19T17:13:04.413Z,15.70
2022-10-19T17:15:47.856Z,15.70
2022-10-19T17:18:14.855Z,15.70
2022-10-19T17:20:44.024Z,15.70
2022-10-19T17:23:10.960Z,15.60
2022-10-19T17:25:38.087Z,15.60
2022-10-19T17:28:05.105Z,15.70
2022-10-19T17:30:32.067Z,15.60
2022-10-19T17:33:01.013Z,15.60
2022-10-19T17:35:33.624Z,15.60
2022-10-19T17:38:00.518Z,15.60
2022-10-19T17:40:29.665Z,15.60
2022-10-19T17:42:56.559Z,15.60
2022-10-19T17:45:33.147Z,15.50
2022-10-19T17:48:02.323Z,15.50
2022-10-19T17:50:31.387Z,15.50
2022-10-19T17:53:01.167Z,15.50
2022-10-19T17:55:28.711Z,15.50
2022-10-19T17:57:57.794Z,15.50
2022-10-19T18:00:24.697Z,15.50
2022-10-19T18:02:54.047Z,15.50
2022-10-19T18:05:20.999Z,15.50
2022-10-19T18:07:53.781Z,15.40
2022-10-19T18:10:20.865Z,15.40
2022-10-19T18:12:50.298Z,15.40
2022-10-19T18:15:17.427Z,15.40
2022-10-19T18:17:49.039Z,15.50
2022-10-19T18:20:18.293Z,15.50
2022-10-19T18:22:45.255Z,15.50
2022-10-19T18:25:18.773Z,15.40
2022-10-19T18:27:53.017Z,15.40
2022-10-19T18:30:19.953Z,15.40
2022-10-19T18:32:49.747Z,15.30
2022-10-19T18:35:16.822Z,15.30
2022-10-19T18:37:43.989Z,15.30
2022-10-19T18:40:13.606Z,15.30
2022-10-19T18:42:40.608Z,15.30
2022-10-19T18:45:08.132Z,15.30
2022-10-19T18:47:35.149Z,15.30
2022-10-19T18:50:02.297Z,15.30
2022-10-19T18:52:36.796Z,15.30
2022-10-19T18:55:04.682Z,15.30
2022-10-19T18:57:36.689Z,15.30
2022-10-19T19:00:04.487Z,15.30
2022-10-19T19:02:42.320Z,15.20
2022-10-19T19:05:15.792Z,15.20
2022-10-19T19:07:42.784Z,15.10
2022-10-19T19:10:09.776Z,15.00
2022-10-19T19:12:39.063Z,15.00
2022-10-19T19:15:10.880Z,14.90
2022-10-19T19:17:38.654Z,14.80
2022-10-19T19:20:08.628Z,14.70
2022-10-19T19:22:36.286Z,14.70
2022-10-19T19:25:04.405Z,14.60
2022-10-19T19:27:32.083Z,14.50
2022-10-19T19:30:00.666Z,14.40
2022-10-19T19:32:47.890Z,14.20
2022-10-19T19:35:24.828Z,14.10
2022-10-19T19:37:51.786Z,14.00
2022-10-19T19:40:18.702Z,13.90
2022-10-19T19:42:47.710Z,13.80
2022-10-19T19:45:14.851Z,13.70
2022-10-19T19:47:46.679Z,13.60
2022-10-19T19:50:16.276Z,13.50
2022-10-19T19:52:45.320Z,13.40
2022-10-19T19:55:12.372Z,13.20
2022-10-19T19:57:41.413Z,13.10
2022-10-19T20:00:11.640Z,13.00
2022-10-19T20:02:39.399Z,12.90
2022-10-19T20:05:11.590Z,12.80
2022-10-19T20:07:41.033Z,12.80
2022-10-19T20:10:08.483Z,12.80
2022-10-19T20:12:38.434Z,12.70
2022-10-19T20:15:06.638Z,12.60
2022-10-19T20:17:36.214Z,12.50
2022-10-19T20:20:05.963Z,12.40
2022-10-19T20:22:33.367Z,12.40
2022-10-19T20:25:00.357Z,12.30
2022-10-19T20:27:29.536Z,12.30
2022-10-19T20:29:58.715Z,12.30
2022-10-19T20:32:28.760Z,12.30
2022-10-19T20:34:58.025Z,12.30
2022-10-19T20:37:27.162Z,12.20
2022-10-19T20:39:54.054Z,12.20
2022-10-19T20:42:25.787Z,12.10
2022-10-19T20:44:54.870Z,12.10
2022-10-19T20:47:24.039Z,12.00
2022-10-19T20:49:53.144Z,12.00
2022-10-19T20:52:20.124Z,11.90
2022-10-19T20:54:50.942Z,11.90
2022-10-19T20:57:17.937Z,11.80
2022-10-19T20:59:48.665Z,11.80
2022-10-19T21:02:17.377Z,11.80
2022-10-19T21:04:44.321Z,11.80
2022-10-19T21:07:11.235Z,11.80
2022-10-19T21:09:43.404Z,11.70
2022-10-19T21:12:10.351Z,11.70
2022-10-19T21:14:44.295Z,11.60
2022-10-19T21:17:11.229Z,11.60
2022-10-19T21:19:38.365Z,11.50
2022-10-19T21:22:08.500Z,11.50
